KPNE

Northeast Philadelphia Airport

Philadelphia, Pennsylvania, USA
METAR KPNE 151254Z 04008KT 10SM FEW120 01/M08 A3056 RMK AO2 SLP347 T00111078
Observed Flight Rules
Nov-15 @ 12:54 UTC (30 minutes ago) Visual Flight Rules
Wind Visibility Clouds
40° at 8 knots 10 miles
  • Few at 12,000' AGL
Temperatures Readings
Current 1°C / 34°F
Dewpoint -8°C / 18°F
Humidity 51%
Altimeter 30.56" Hg
Pressure 1034.7 hPa
Elevation 28
METAR KPNE 151254Z 04008KT 10SM FEW120 01/M08 A3056 RMK AO2 SLP347 T00111078
Observed Flight Rules
Nov-15 @ 12:54 UTC
(30 minutes ago)
VFR
Wind Visibility
40° at 8 knots 10 miles
Clouds
  • Few at 12,000' AGL
Temperature Dewpoint
1°C / 34°F -8°C / 18°F
Humidity Altimeter Pressure
51% 30.56" Hg 1034.7 hPa